OJAQ/AQJ METAR and TAF weather

Enter ICAO airport designator
Station Type Date Time Source
OJAQ METAR 2024/06/16 08:00 UTC NOAA

OJAQ 160800Z 35010KT 8000 NSC 38/09 Q1007 NOSIG


Station Type Date Time Source
OJAQ Decoded METAR 2024/06/16 08:00 UTC NOAA

Aqaba Airport, Jordan (OJAQ) 29-38N 035-01E 51M
Jun 16, 2024 - 04:00 AM EDT / 2024.06.16 0800 UTC
Wind: from the N (350 degrees) at 12 MPH (10 KT):0
Visibility: 4 mile(s):0
Temperature: 100 F (38 C)
Heat index: 96.4 F (35.8 C):1
Dew Point: 48 F (9 C)
Relative Humidity: 17%
Pressure (altimeter): 29.74 in. Hg (1007 hPa)
ob: OJAQ 160800Z 35010KT 8000 NSC 38/09 Q1007 NOSIG
cycle: 8

Station Type Date Time Source
OJAQ TAF 2024/06/16 06:15 UTC NOAA